sensor_id;sensor_type;location;lat;lon;timestamp;P1;durP1;ratioP1;P2;durP2;ratioP2
52208;SDS011;38507;53.132;6.394;2023-08-12T00:00:20;6.07;;;3.30;;
52208;SDS011;38507;53.132;6.394;2023-08-12T00:02:46;7.53;;;3.20;;
52208;SDS011;38507;53.132;6.394;2023-08-12T00:05:12;11.50;;;3.20;;
52208;SDS011;38507;53.132;6.394;2023-08-12T00:07:41;9.82;;;3.17;;
52208;SDS011;38507;53.132;6.394;2023-08-12T00:10:07;9.55;;;3.58;;
52208;SDS011;38507;53.132;6.394;2023-08-12T00:12:34;9.05;;;3.08;;
52208;SDS011;38507;53.132;6.394;2023-08-12T00:15:00;8.60;;;2.88;;
52208;SDS011;38507;53.132;6.394;2023-08-12T00:17:27;8.02;;;3.20;;
52208;SDS011;38507;53.132;6.394;2023-08-12T00:19:53;7.38;;;3.13;;
52208;SDS011;38507;53.132;6.394;2023-08-12T00:22:19;7.82;;;3.17;;
52208;SDS011;38507;53.132;6.394;2023-08-12T00:24:44;6.07;;;2.95;;
52208;SDS011;38507;53.132;6.394;2023-08-12T00:27:10;8.57;;;3.40;;
52208;SDS011;38507;53.132;6.394;2023-08-12T00:29:36;6.07;;;3.58;;
52208;SDS011;38507;53.132;6.394;2023-08-12T00:32:02;9.32;;;3.75;;
52208;SDS011;38507;53.132;6.394;2023-08-12T00:34:28;5.00;;;3.38;;
52208;SDS011;38507;53.132;6.394;2023-08-12T00:36:53;7.55;;;3.72;;
52208;SDS011;38507;53.132;6.394;2023-08-12T00:39:19;11.23;;;3.63;;
52208;SDS011;38507;53.132;6.394;2023-08-12T00:41:45;7.28;;;3.17;;
52208;SDS011;38507;53.132;6.394;2023-08-12T00:44:11;7.00;;;3.47;;
52208;SDS011;38507;53.132;6.394;2023-08-12T00:46:37;8.65;;;3.65;;
52208;SDS011;38507;53.132;6.394;2023-08-12T00:49:05;9.85;;;3.55;;
52208;SDS011;38507;53.132;6.394;2023-08-12T00:51:31;7.93;;;3.45;;
52208;SDS011;38507;53.132;6.394;2023-08-12T00:53:57;7.03;;;3.95;;
52208;SDS011;38507;53.132;6.394;2023-08-12T00:56:24;7.18;;;3.03;;
52208;SDS011;38507;53.132;6.394;2023-08-12T00:58:52;6.40;;;3.22;;
52208;SDS011;38507;53.132;6.394;2023-08-12T01:01:18;9.98;;;3.53;;
52208;SDS011;38507;53.132;6.394;2023-08-12T01:03:44;8.73;;;3.05;;
52208;SDS011;38507;53.132;6.394;2023-08-12T01:06:10;6.72;;;3.13;;
52208;SDS011;38507;53.132;6.394;2023-08-12T01:08:35;6.82;;;3.13;;
52208;SDS011;38507;53.132;6.394;2023-08-12T01:11:03;6.55;;;3.17;;
52208;SDS011;38507;53.132;6.394;2023-08-12T01:16:29;5.35;;;2.72;;
52208;SDS011;38507;53.132;6.394;2023-08-12T01:18:58;6.13;;;3.00;;
52208;SDS011;38507;53.132;6.394;2023-08-12T01:21:26;6.07;;;2.45;;
52208;SDS011;38507;53.132;6.394;2023-08-12T01:23:54;5.80;;;3.03;;
52208;SDS011;38507;53.132;6.394;2023-08-12T01:26:20;5.53;;;2.67;;
52208;SDS011;38507;53.132;6.394;2023-08-12T01:28:46;7.75;;;3.45;;
52208;SDS011;38507;53.132;6.394;2023-08-12T01:31:14;6.97;;;3.03;;
52208;SDS011;38507;53.132;6.394;2023-08-12T01:33:46;12.52;;;3.40;;
52208;SDS011;38507;53.132;6.394;2023-08-12T01:36:21;5.85;;;2.78;;
52208;SDS011;38507;53.132;6.394;2023-08-12T01:38:50;9.27;;;3.42;;
52208;SDS011;38507;53.132;6.394;2023-08-12T01:41:16;5.05;;;2.85;;
52208;SDS011;38507;53.132;6.394;2023-08-12T01:43:44;7.78;;;2.85;;
52208;SDS011;38507;53.132;6.394;2023-08-12T01:46:10;5.60;;;3.25;;
52208;SDS011;38507;53.132;6.394;2023-08-12T01:48:36;8.13;;;3.58;;
52208;SDS011;38507;53.132;6.394;2023-08-12T01:51:02;6.05;;;3.30;;
52208;SDS011;38507;53.132;6.394;2023-08-12T01:53:28;6.50;;;3.67;;
52208;SDS011;38507;53.132;6.394;2023-08-12T01:55:53;8.30;;;3.83;;
52208;SDS011;38507;53.132;6.394;2023-08-12T01:58:19;11.02;;;3.63;;
52208;SDS011;38507;53.132;6.394;2023-08-12T02:00:45;7.43;;;3.95;;
52208;SDS011;38507;53.132;6.394;2023-08-12T02:03:10;6.93;;;4.18;;
52208;SDS011;38507;53.132;6.394;2023-08-12T02:05:36;9.80;;;4.55;;
52208;SDS011;38507;53.132;6.394;2023-08-12T02:08:06;9.00;;;4.57;;
52208;SDS011;38507;53.132;6.394;2023-08-12T02:10:32;8.32;;;4.45;;
52208;SDS011;38507;53.132;6.394;2023-08-12T02:12:57;12.40;;;6.07;;
52208;SDS011;38507;53.132;6.394;2023-08-12T02:15:23;10.60;;;4.93;;
52208;SDS011;38507;53.132;6.394;2023-08-12T02:17:49;8.90;;;4.88;;
52208;SDS011;38507;53.132;6.394;2023-08-12T02:20:14;8.20;;;4.72;;
52208;SDS011;38507;53.132;6.394;2023-08-12T02:22:40;8.80;;;5.10;;
52208;SDS011;38507;53.132;6.394;2023-08-12T02:25:06;9.65;;;5.72;;
52208;SDS011;38507;53.132;6.394;2023-08-12T02:27:31;9.07;;;5.20;;
52208;SDS011;38507;53.132;6.394;2023-08-12T02:29:57;8.75;;;5.55;;
52208;SDS011;38507;53.132;6.394;2023-08-12T02:32:23;11.57;;;5.28;;
52208;SDS011;38507;53.132;6.394;2023-08-12T02:34:48;8.20;;;5.32;;
52208;SDS011;38507;53.132;6.394;2023-08-12T02:37:14;11.07;;;5.88;;
52208;SDS011;38507;53.132;6.394;2023-08-12T02:39:40;11.80;;;5.18;;
52208;SDS011;38507;53.132;6.394;2023-08-12T02:42:05;13.80;;;5.85;;
52208;SDS011;38507;53.132;6.394;2023-08-12T02:44:31;10.27;;;5.07;;
52208;SDS011;38507;53.132;6.394;2023-08-12T02:46:56;10.95;;;6.18;;
52208;SDS011;38507;53.132;6.394;2023-08-12T02:49:22;10.48;;;4.90;;
52208;SDS011;38507;53.132;6.394;2023-08-12T02:51:48;10.23;;;4.97;;
52208;SDS011;38507;53.132;6.394;2023-08-12T02:54:13;8.05;;;5.40;;
52208;SDS011;38507;53.132;6.394;2023-08-12T02:56:39;11.50;;;6.47;;
52208;SDS011;38507;53.132;6.394;2023-08-12T02:59:05;8.70;;;5.45;;
52208;SDS011;38507;53.132;6.394;2023-08-12T03:01:30;11.00;;;5.85;;
52208;SDS011;38507;53.132;6.394;2023-08-12T03:03:56;10.18;;;6.10;;
52208;SDS011;38507;53.132;6.394;2023-08-12T03:06:22;10.02;;;5.57;;
52208;SDS011;38507;53.132;6.394;2023-08-12T03:08:47;10.02;;;5.43;;
52208;SDS011;38507;53.132;6.394;2023-08-12T03:11:13;10.45;;;5.80;;
52208;SDS011;38507;53.132;6.394;2023-08-12T03:13:40;14.38;;;6.20;;
52208;SDS011;38507;53.132;6.394;2023-08-12T03:16:10;9.15;;;6.07;;
52208;SDS011;38507;53.132;6.394;2023-08-12T03:18:37;11.10;;;6.03;;
52208;SDS011;38507;53.132;6.394;2023-08-12T03:21:05;13.73;;;6.63;;
52208;SDS011;38507;53.132;6.394;2023-08-12T03:23:34;13.90;;;6.80;;
52208;SDS011;38507;53.132;6.394;2023-08-12T03:26:01;10.25;;;6.13;;
52208;SDS011;38507;53.132;6.394;2023-08-12T03:28:26;12.98;;;6.78;;
52208;SDS011;38507;53.132;6.394;2023-08-12T03:30:52;12.85;;;7.35;;
52208;SDS011;38507;53.132;6.394;2023-08-12T03:33:19;12.48;;;6.28;;
52208;SDS011;38507;53.132;6.394;2023-08-12T03:35:48;16.23;;;6.70;;
52208;SDS011;38507;53.132;6.394;2023-08-12T03:38:14;11.00;;;7.43;;
52208;SDS011;38507;53.132;6.394;2023-08-12T03:40:40;14.95;;;6.88;;
52208;SDS011;38507;53.132;6.394;2023-08-12T03:43:07;11.93;;;6.95;;
52208;SDS011;38507;53.132;6.394;2023-08-12T03:45:33;10.57;;;7.32;;
52208;SDS011;38507;53.132;6.394;2023-08-12T03:48:05;12.02;;;7.50;;
52208;SDS011;38507;53.132;6.394;2023-08-12T03:50:34;14.43;;;7.68;;
52208;SDS011;38507;53.132;6.394;2023-08-12T03:53:01;10.90;;;6.72;;
52208;SDS011;38507;53.132;6.394;2023-08-12T03:55:26;13.23;;;7.40;;
52208;SDS011;38507;53.132;6.394;2023-08-12T03:57:54;14.48;;;8.27;;
52208;SDS011;38507;53.132;6.394;2023-08-12T04:00:20;14.32;;;7.78;;
52208;SDS011;38507;53.132;6.394;2023-08-12T04:02:46;14.50;;;8.25;;
52208;SDS011;38507;53.132;6.394;2023-08-12T04:05:11;12.73;;;7.97;;
52208;SDS011;38507;53.132;6.394;2023-08-12T04:07:37;13.13;;;8.25;;
52208;SDS011;38507;53.132;6.394;2023-08-12T04:10:03;12.70;;;8.60;;
52208;SDS011;38507;53.132;6.394;2023-08-12T04:12:28;12.32;;;8.50;;
52208;SDS011;38507;53.132;6.394;2023-08-12T04:14:54;14.23;;;8.20;;
52208;SDS011;38507;53.132;6.394;2023-08-12T04:17:20;14.05;;;8.65;;
52208;SDS011;38507;53.132;6.394;2023-08-12T04:19:45;17.05;;;8.68;;
52208;SDS011;38507;53.132;6.394;2023-08-12T04:22:11;15.95;;;8.48;;
52208;SDS011;38507;53.132;6.394;2023-08-12T04:24:37;13.20;;;8.52;;
52208;SDS011;38507;53.132;6.394;2023-08-12T04:27:02;13.80;;;9.15;;
52208;SDS011;38507;53.132;6.394;2023-08-12T04:29:28;14.13;;;8.27;;
52208;SDS011;38507;53.132;6.394;2023-08-12T04:31:53;17.75;;;9.27;;
52208;SDS011;38507;53.132;6.394;2023-08-12T04:34:19;16.88;;;8.77;;
52208;SDS011;38507;53.132;6.394;2023-08-12T04:36:45;11.55;;;7.65;;
52208;SDS011;38507;53.132;6.394;2023-08-12T04:39:10;15.05;;;9.27;;
52208;SDS011;38507;53.132;6.394;2023-08-12T04:41:36;18.20;;;8.75;;
52208;SDS011;38507;53.132;6.394;2023-08-12T04:44:03;13.98;;;8.55;;
52208;SDS011;38507;53.132;6.394;2023-08-12T04:46:30;16.70;;;9.27;;
52208;SDS011;38507;53.132;6.394;2023-08-12T04:48:55;14.57;;;8.63;;
52208;SDS011;38507;53.132;6.394;2023-08-12T04:51:21;15.93;;;8.90;;
52208;SDS011;38507;53.132;6.394;2023-08-12T04:53:46;19.20;;;9.27;;
52208;SDS011;38507;53.132;6.394;2023-08-12T04:56:12;13.77;;;9.00;;
52208;SDS011;38507;53.132;6.394;2023-08-12T04:58:38;14.07;;;7.55;;
52208;SDS011;38507;53.132;6.394;2023-08-12T05:01:04;12.00;;;8.52;;
52208;SDS011;38507;53.132;6.394;2023-08-12T05:03:29;16.00;;;8.55;;
52208;SDS011;38507;53.132;6.394;2023-08-12T05:05:55;15.65;;;8.52;;
52208;SDS011;38507;53.132;6.394;2023-08-12T05:08:21;12.38;;;8.65;;
52208;SDS011;38507;53.132;6.394;2023-08-12T05:10:47;16.58;;;8.73;;
52208;SDS011;38507;53.132;6.394;2023-08-12T05:13:13;16.25;;;8.35;;
52208;SDS011;38507;53.132;6.394;2023-08-12T05:15:39;14.27;;;8.82;;
52208;SDS011;38507;53.132;6.394;2023-08-12T05:18:05;16.42;;;8.48;;
52208;SDS011;38507;53.132;6.394;2023-08-12T05:20:31;14.55;;;8.85;;
52208;SDS011;38507;53.132;6.394;2023-08-12T05:22:57;14.25;;;8.25;;
52208;SDS011;38507;53.132;6.394;2023-08-12T05:25:23;10.65;;;7.85;;
52208;SDS011;38507;53.132;6.394;2023-08-12T05:27:49;18.88;;;8.75;;
52208;SDS011;38507;53.132;6.394;2023-08-12T05:30:15;11.05;;;8.75;;
52208;SDS011;38507;53.132;6.394;2023-08-12T05:32:40;15.52;;;8.35;;
52208;SDS011;38507;53.132;6.394;2023-08-12T05:35:06;15.35;;;9.00;;
52208;SDS011;38507;53.132;6.394;2023-08-12T05:37:32;15.43;;;8.70;;
52208;SDS011;38507;53.132;6.394;2023-08-12T05:39:58;16.65;;;8.57;;
52208;SDS011;38507;53.132;6.394;2023-08-12T05:42:23;15.98;;;9.32;;
52208;SDS011;38507;53.132;6.394;2023-08-12T05:44:49;14.30;;;8.10;;
52208;SDS011;38507;53.132;6.394;2023-08-12T05:47:15;17.08;;;9.18;;
52208;SDS011;38507;53.132;6.394;2023-08-12T05:49:40;14.07;;;8.95;;
52208;SDS011;38507;53.132;6.394;2023-08-12T05:52:07;15.65;;;8.70;;
52208;SDS011;38507;53.132;6.394;2023-08-12T05:54:35;19.30;;;9.02;;
52208;SDS011;38507;53.132;6.394;2023-08-12T05:57:00;13.95;;;8.73;;
52208;SDS011;38507;53.132;6.394;2023-08-12T05:59:26;17.60;;;8.93;;
52208;SDS011;38507;53.132;6.394;2023-08-12T06:01:52;18.17;;;9.75;;
52208;SDS011;38507;53.132;6.394;2023-08-12T06:04:18;22.27;;;9.05;;
52208;SDS011;38507;53.132;6.394;2023-08-12T06:06:44;15.30;;;9.30;;
52208;SDS011;38507;53.132;6.394;2023-08-12T06:09:10;15.05;;;9.77;;
52208;SDS011;38507;53.132;6.394;2023-08-12T06:11:36;14.35;;;9.73;;
52208;SDS011;38507;53.132;6.394;2023-08-12T06:14:01;14.55;;;9.23;;
52208;SDS011;38507;53.132;6.394;2023-08-12T06:16:28;16.48;;;9.75;;
52208;SDS011;38507;53.132;6.394;2023-08-12T06:18:54;17.67;;;9.13;;
52208;SDS011;38507;53.132;6.394;2023-08-12T06:21:19;17.92;;;9.85;;
52208;SDS011;38507;53.132;6.394;2023-08-12T06:23:45;18.08;;;9.55;;
52208;SDS011;38507;53.132;6.394;2023-08-12T06:26:11;18.67;;;9.63;;
52208;SDS011;38507;53.132;6.394;2023-08-12T06:28:37;15.73;;;9.48;;
52208;SDS011;38507;53.132;6.394;2023-08-12T06:31:02;14.85;;;9.68;;
52208;SDS011;38507;53.132;6.394;2023-08-12T06:33:28;14.45;;;9.85;;
52208;SDS011;38507;53.132;6.394;2023-08-12T06:35:53;16.67;;;9.27;;
52208;SDS011;38507;53.132;6.394;2023-08-12T06:38:19;18.35;;;10.63;;
52208;SDS011;38507;53.132;6.394;2023-08-12T06:40:46;15.98;;;9.88;;
52208;SDS011;38507;53.132;6.394;2023-08-12T06:43:13;15.20;;;9.63;;
52208;SDS011;38507;53.132;6.394;2023-08-12T06:45:38;17.45;;;9.77;;
52208;SDS011;38507;53.132;6.394;2023-08-12T06:48:04;20.08;;;9.88;;
52208;SDS011;38507;53.132;6.394;2023-08-12T06:50:30;17.80;;;10.27;;
52208;SDS011;38507;53.132;6.394;2023-08-12T06:52:57;20.55;;;11.23;;
52208;SDS011;38507;53.132;6.394;2023-08-12T06:55:23;17.42;;;10.88;;
52208;SDS011;38507;53.132;6.394;2023-08-12T06:57:49;22.10;;;11.07;;
52208;SDS011;38507;53.132;6.394;2023-08-12T07:00:15;18.45;;;11.20;;
52208;SDS011;38507;53.132;6.394;2023-08-12T07:02:40;15.82;;;10.05;;
52208;SDS011;38507;53.132;6.394;2023-08-12T07:05:07;18.55;;;10.85;;
52208;SDS011;38507;53.132;6.394;2023-08-12T07:07:33;21.95;;;12.02;;
52208;SDS011;38507;53.132;6.394;2023-08-12T07:09:59;19.98;;;11.25;;
52208;SDS011;38507;53.132;6.394;2023-08-12T07:12:25;24.27;;;12.75;;
52208;SDS011;38507;53.132;6.394;2023-08-12T07:14:51;17.48;;;12.15;;
52208;SDS011;38507;53.132;6.394;2023-08-12T07:17:17;20.40;;;11.80;;
52208;SDS011;38507;53.132;6.394;2023-08-12T07:19:43;20.73;;;11.65;;
52208;SDS011;38507;53.132;6.394;2023-08-12T07:22:09;19.38;;;12.82;;
52208;SDS011;38507;53.132;6.394;2023-08-12T07:24:35;26.88;;;13.23;;
52208;SDS011;38507;53.132;6.394;2023-08-12T07:27:01;27.45;;;13.25;;
52208;SDS011;38507;53.132;6.394;2023-08-12T07:29:26;21.45;;;12.20;;
52208;SDS011;38507;53.132;6.394;2023-08-12T07:31:52;22.25;;;11.70;;
52208;SDS011;38507;53.132;6.394;2023-08-12T07:34:18;22.85;;;12.70;;
52208;SDS011;38507;53.132;6.394;2023-08-12T07:36:44;25.83;;;14.23;;
52208;SDS011;38507;53.132;6.394;2023-08-12T07:39:10;20.30;;;12.00;;
52208;SDS011;38507;53.132;6.394;2023-08-12T07:41:36;20.40;;;12.43;;
52208;SDS011;38507;53.132;6.394;2023-08-12T07:44:02;26.08;;;13.45;;
52208;SDS011;38507;53.132;6.394;2023-08-12T07:46:29;21.38;;;12.85;;
52208;SDS011;38507;53.132;6.394;2023-08-12T07:48:55;22.52;;;13.65;;
52208;SDS011;38507;53.132;6.394;2023-08-12T07:51:21;22.55;;;13.55;;
52208;SDS011;38507;53.132;6.394;2023-08-12T07:53:47;20.70;;;12.30;;
52208;SDS011;38507;53.132;6.394;2023-08-12T07:56:13;18.58;;;12.80;;
52208;SDS011;38507;53.132;6.394;2023-08-12T07:58:38;20.60;;;13.07;;
52208;SDS011;38507;53.132;6.394;2023-08-12T08:01:04;21.77;;;12.32;;
52208;SDS011;38507;53.132;6.394;2023-08-12T08:03:30;17.60;;;10.95;;
52208;SDS011;38507;53.132;6.394;2023-08-12T08:05:56;24.85;;;13.68;;
52208;SDS011;38507;53.132;6.394;2023-08-12T08:08:22;24.08;;;13.38;;
52208;SDS011;38507;53.132;6.394;2023-08-12T08:10:47;20.50;;;11.63;;
52208;SDS011;38507;53.132;6.394;2023-08-12T08:13:13;18.02;;;11.68;;
52208;SDS011;38507;53.132;6.394;2023-08-12T08:15:39;21.40;;;13.32;;
52208;SDS011;38507;53.132;6.394;2023-08-12T08:18:04;18.77;;;11.95;;
52208;SDS011;38507;53.132;6.394;2023-08-12T08:20:30;20.20;;;12.65;;
52208;SDS011;38507;53.132;6.394;2023-08-12T08:22:56;21.20;;;12.60;;
52208;SDS011;38507;53.132;6.394;2023-08-12T08:25:22;25.88;;;12.85;;
52208;SDS011;38507;53.132;6.394;2023-08-12T08:27:48;22.98;;;12.65;;
52208;SDS011;38507;53.132;6.394;2023-08-12T08:30:13;23.67;;;12.00;;
52208;SDS011;38507;53.132;6.394;2023-08-12T08:32:39;21.98;;;12.90;;
52208;SDS011;38507;53.132;6.394;2023-08-12T08:35:05;17.13;;;11.25;;
52208;SDS011;38507;53.132;6.394;2023-08-12T08:37:32;19.95;;;12.27;;
52208;SDS011;38507;53.132;6.394;2023-08-12T08:39:57;19.80;;;12.00;;
52208;SDS011;38507;53.132;6.394;2023-08-12T08:42:24;19.38;;;12.68;;
52208;SDS011;38507;53.132;6.394;2023-08-12T08:44:53;18.70;;;12.90;;
52208;SDS011;38507;53.132;6.394;2023-08-12T08:47:25;20.50;;;13.02;;
52208;SDS011;38507;53.132;6.394;2023-08-12T08:49:52;21.33;;;11.98;;
52208;SDS011;38507;53.132;6.394;2023-08-12T08:52:25;19.15;;;12.25;;
52208;SDS011;38507;53.132;6.394;2023-08-12T08:54:52;16.65;;;11.45;;
52208;SDS011;38507;53.132;6.394;2023-08-12T08:57:18;18.67;;;13.23;;
52208;SDS011;38507;53.132;6.394;2023-08-12T08:59:44;22.60;;;13.10;;
52208;SDS011;38507;53.132;6.394;2023-08-12T09:02:13;24.00;;;15.00;;
52208;SDS011;38507;53.132;6.394;2023-08-12T09:04:44;21.95;;;14.38;;
52208;SDS011;38507;53.132;6.394;2023-08-12T09:07:11;24.20;;;14.60;;
52208;SDS011;38507;53.132;6.394;2023-08-12T09:09:44;20.52;;;14.50;;
52208;SDS011;38507;53.132;6.394;2023-08-12T09:12:13;21.33;;;13.90;;
52208;SDS011;38507;53.132;6.394;2023-08-12T09:14:41;18.98;;;13.57;;
52208;SDS011;38507;53.132;6.394;2023-08-12T09:17:08;25.95;;;15.20;;
52208;SDS011;38507;53.132;6.394;2023-08-12T09:19:34;23.48;;;14.52;;
52208;SDS011;38507;53.132;6.394;2023-08-12T09:22:00;22.73;;;15.77;;
52208;SDS011;38507;53.132;6.394;2023-08-12T09:24:29;22.88;;;14.65;;
52208;SDS011;38507;53.132;6.394;2023-08-12T09:26:55;21.70;;;14.02;;
52208;SDS011;38507;53.132;6.394;2023-08-12T09:29:31;21.52;;;14.63;;
52208;SDS011;38507;53.132;6.394;2023-08-12T09:32:05;22.38;;;14.98;;
52208;SDS011;38507;53.132;6.394;2023-08-12T09:34:32;19.52;;;13.88;;
52208;SDS011;38507;53.132;6.394;2023-08-12T09:36:58;21.05;;;14.07;;
52208;SDS011;38507;53.132;6.394;2023-08-12T09:39:23;24.27;;;15.18;;
52208;SDS011;38507;53.132;6.394;2023-08-12T09:41:49;18.40;;;13.55;;
52208;SDS011;38507;53.132;6.394;2023-08-12T09:44:16;20.15;;;15.25;;
52208;SDS011;38507;53.132;6.394;2023-08-12T09:46:41;17.60;;;12.38;;
52208;SDS011;38507;53.132;6.394;2023-08-12T09:49:07;21.75;;;12.85;;
52208;SDS011;38507;53.132;6.394;2023-08-12T09:51:34;18.80;;;13.15;;
52208;SDS011;38507;53.132;6.394;2023-08-12T09:54:01;17.27;;;12.57;;
52208;SDS011;38507;53.132;6.394;2023-08-12T09:56:27;18.50;;;13.13;;
52208;SDS011;38507;53.132;6.394;2023-08-12T09:58:58;16.15;;;11.43;;
52208;SDS011;38507;53.132;6.394;2023-08-12T10:01:26;15.18;;;11.77;;
52208;SDS011;38507;53.132;6.394;2023-08-12T10:03:52;13.57;;;10.63;;
52208;SDS011;38507;53.132;6.394;2023-08-12T10:06:19;15.27;;;12.02;;
52208;SDS011;38507;53.132;6.394;2023-08-12T10:08:46;16.55;;;11.85;;
52208;SDS011;38507;53.132;6.394;2023-08-12T10:11:12;16.02;;;12.07;;
52208;SDS011;38507;53.132;6.394;2023-08-12T10:13:42;18.08;;;10.73;;
52208;SDS011;38507;53.132;6.394;2023-08-12T10:16:08;11.27;;;9.23;;
52208;SDS011;38507;53.132;6.394;2023-08-12T10:18:35;10.32;;;7.72;;
52208;SDS011;38507;53.132;6.394;2023-08-12T10:21:03;11.82;;;7.97;;
52208;SDS011;38507;53.132;6.394;2023-08-12T10:23:31;10.95;;;7.20;;
52208;SDS011;38507;53.132;6.394;2023-08-12T10:25:57;11.02;;;6.75;;
52208;SDS011;38507;53.132;6.394;2023-08-12T10:28:24;12.82;;;6.75;;
52208;SDS011;38507;53.132;6.394;2023-08-12T10:30:50;9.15;;;7.40;;
52208;SDS011;38507;53.132;6.394;2023-08-12T10:33:17;9.05;;;6.78;;
52208;SDS011;38507;53.132;6.394;2023-08-12T10:35:47;10.32;;;6.30;;
52208;SDS011;38507;53.132;6.394;2023-08-12T10:38:16;8.85;;;5.20;;
52208;SDS011;38507;53.132;6.394;2023-08-12T10:40:42;7.45;;;4.85;;
52208;SDS011;38507;53.132;6.394;2023-08-12T10:43:09;6.38;;;3.65;;
52208;SDS011;38507;53.132;6.394;2023-08-12T10:45:48;8.68;;;4.25;;
52208;SDS011;38507;53.132;6.394;2023-08-12T10:48:18;5.72;;;3.10;;
52208;SDS011;38507;53.132;6.394;2023-08-12T10:50:51;5.15;;;3.05;;
52208;SDS011;38507;53.132;6.394;2023-08-12T10:53:25;6.25;;;3.03;;
52208;SDS011;38507;53.132;6.394;2023-08-12T10:55:56;6.65;;;3.60;;
52208;SDS011;38507;53.132;6.394;2023-08-12T10:58:29;9.10;;;3.72;;
52208;SDS011;38507;53.132;6.394;2023-08-12T11:01:13;6.25;;;3.47;;
52208;SDS011;38507;53.132;6.394;2023-08-12T11:03:45;5.47;;;3.72;;
52208;SDS011;38507;53.132;6.394;2023-08-12T11:06:12;5.97;;;4.10;;
52208;SDS011;38507;53.132;6.394;2023-08-12T11:08:51;5.95;;;3.88;;
52208;SDS011;38507;53.132;6.394;2023-08-12T11:11:24;6.38;;;3.40;;
52208;SDS011;38507;53.132;6.394;2023-08-12T11:13:53;5.85;;;3.67;;
52208;SDS011;38507;53.132;6.394;2023-08-12T11:16:19;5.10;;;3.28;;
52208;SDS011;38507;53.132;6.394;2023-08-12T11:18:59;4.03;;;2.70;;
52208;SDS011;38507;53.132;6.394;2023-08-12T11:21:25;3.25;;;1.80;;
52208;SDS011;38507;53.132;6.394;2023-08-12T11:23:52;6.25;;;2.10;;
52208;SDS011;38507;53.132;6.394;2023-08-12T11:26:20;4.20;;;1.60;;
52208;SDS011;38507;53.132;6.394;2023-08-12T11:28:48;4.60;;;1.98;;
52208;SDS011;38507;53.132;6.394;2023-08-12T11:31:15;5.60;;;2.00;;
52208;SDS011;38507;53.132;6.394;2023-08-12T11:33:41;4.80;;;2.08;;
52208;SDS011;38507;53.132;6.394;2023-08-12T11:36:07;5.30;;;1.92;;
52208;SDS011;38507;53.132;6.394;2023-08-12T11:38:32;6.10;;;2.47;;
52208;SDS011;38507;53.132;6.394;2023-08-12T11:41:00;7.65;;;2.60;;
52208;SDS011;38507;53.132;6.394;2023-08-12T11:43:27;7.57;;;2.60;;
52208;SDS011;38507;53.132;6.394;2023-08-12T11:45:55;5.72;;;2.63;;
52208;SDS011;38507;53.132;6.394;2023-08-12T11:48:21;6.50;;;2.00;;
52208;SDS011;38507;53.132;6.394;2023-08-12T11:50:49;6.80;;;2.55;;
52208;SDS011;38507;53.132;6.394;2023-08-12T11:53:15;9.48;;;2.53;;
52208;SDS011;38507;53.132;6.394;2023-08-12T11:55:41;7.35;;;2.30;;
52208;SDS011;38507;53.132;6.394;2023-08-12T11:58:07;5.57;;;1.70;;
52208;SDS011;38507;53.132;6.394;2023-08-12T12:00:33;6.70;;;2.35;;
52208;SDS011;38507;53.132;6.394;2023-08-12T12:02:59;10.02;;;2.40;;
52208;SDS011;38507;53.132;6.394;2023-08-12T12:05:28;6.80;;;2.22;;
52208;SDS011;38507;53.132;6.394;2023-08-12T12:07:59;7.68;;;2.42;;
52208;SDS011;38507;53.132;6.394;2023-08-12T12:10:29;8.02;;;2.45;;
52208;SDS011;38507;53.132;6.394;2023-08-12T12:12:56;7.13;;;2.00;;
52208;SDS011;38507;53.132;6.394;2023-08-12T12:15:23;12.57;;;2.40;;
52208;SDS011;38507;53.132;6.394;2023-08-12T12:17:49;8.18;;;2.15;;
52208;SDS011;38507;53.132;6.394;2023-08-12T12:20:16;6.50;;;2.17;;
52208;SDS011;38507;53.132;6.394;2023-08-12T12:22:42;7.57;;;2.00;;
52208;SDS011;38507;53.132;6.394;2023-08-12T12:25:13;7.70;;;2.08;;
52208;SDS011;38507;53.132;6.394;2023-08-12T12:27:40;10.80;;;2.42;;
52208;SDS011;38507;53.132;6.394;2023-08-12T12:30:08;6.93;;;1.55;;
52208;SDS011;38507;53.132;6.394;2023-08-12T12:32:34;7.47;;;2.33;;
52208;SDS011;38507;53.132;6.394;2023-08-12T12:35:00;6.18;;;1.75;;
52208;SDS011;38507;53.132;6.394;2023-08-12T12:37:26;6.85;;;2.05;;
52208;SDS011;38507;53.132;6.394;2023-08-12T12:39:52;10.65;;;2.05;;
52208;SDS011;38507;53.132;6.394;2023-08-12T12:42:18;8.02;;;1.90;;
52208;SDS011;38507;53.132;6.394;2023-08-12T12:44:43;9.98;;;2.13;;
52208;SDS011;38507;53.132;6.394;2023-08-12T12:47:09;9.60;;;2.20;;
52208;SDS011;38507;53.132;6.394;2023-08-12T12:49:40;8.35;;;2.70;;
52208;SDS011;38507;53.132;6.394;2023-08-12T12:52:08;10.40;;;2.70;;
52208;SDS011;38507;53.132;6.394;2023-08-12T12:54:34;8.75;;;2.53;;
52208;SDS011;38507;53.132;6.394;2023-08-12T12:56:59;15.15;;;2.95;;
52208;SDS011;38507;53.132;6.394;2023-08-12T12:59:26;13.15;;;3.42;;
52208;SDS011;38507;53.132;6.394;2023-08-12T13:01:52;8.25;;;3.03;;
52208;SDS011;38507;53.132;6.394;2023-08-12T13:04:18;7.75;;;3.15;;
52208;SDS011;38507;53.132;6.394;2023-08-12T13:06:44;7.43;;;3.05;;
52208;SDS011;38507;53.132;6.394;2023-08-12T13:09:10;9.60;;;3.28;;
52208;SDS011;38507;53.132;6.394;2023-08-12T13:11:35;7.95;;;2.90;;
52208;SDS011;38507;53.132;6.394;2023-08-12T13:14:01;7.38;;;2.88;;
52208;SDS011;38507;53.132;6.394;2023-08-12T13:16:28;9.10;;;3.03;;
52208;SDS011;38507;53.132;6.394;2023-08-12T13:18:54;10.32;;;3.00;;
52208;SDS011;38507;53.132;6.394;2023-08-12T13:21:20;12.02;;;3.47;;
52208;SDS011;38507;53.132;6.394;2023-08-12T13:23:46;15.05;;;3.15;;
52208;SDS011;38507;53.132;6.394;2023-08-12T13:26:12;10.05;;;2.58;;
52208;SDS011;38507;53.132;6.394;2023-08-12T13:28:38;7.75;;;2.70;;
52208;SDS011;38507;53.132;6.394;2023-08-12T13:31:03;10.02;;;2.55;;
52208;SDS011;38507;53.132;6.394;2023-08-12T13:33:29;9.77;;;2.97;;
52208;SDS011;38507;53.132;6.394;2023-08-12T13:35:54;8.48;;;2.50;;
52208;SDS011;38507;53.132;6.394;2023-08-12T13:38:20;9.98;;;2.80;;
52208;SDS011;38507;53.132;6.394;2023-08-12T13:40:46;9.75;;;2.50;;
52208;SDS011;38507;53.132;6.394;2023-08-12T13:43:11;9.73;;;2.38;;
52208;SDS011;38507;53.132;6.394;2023-08-12T13:45:37;12.05;;;2.83;;
52208;SDS011;38507;53.132;6.394;2023-08-12T13:48:03;13.05;;;2.30;;
52208;SDS011;38507;53.132;6.394;2023-08-12T13:50:28;12.30;;;3.08;;
52208;SDS011;38507;53.132;6.394;2023-08-12T13:52:57;10.73;;;2.45;;
52208;SDS011;38507;53.132;6.394;2023-08-12T13:55:25;11.10;;;1.95;;
52208;SDS011;38507;53.132;6.394;2023-08-12T13:57:51;7.80;;;1.80;;
52208;SDS011;38507;53.132;6.394;2023-08-12T14:00:17;6.80;;;1.80;;
52208;SDS011;38507;53.132;6.394;2023-08-12T14:02:43;9.80;;;1.85;;
52208;SDS011;38507;53.132;6.394;2023-08-12T14:05:09;11.32;;;2.42;;
52208;SDS011;38507;53.132;6.394;2023-08-12T14:07:35;10.82;;;2.22;;
52208;SDS011;38507;53.132;6.394;2023-08-12T14:10:01;6.43;;;1.60;;
52208;SDS011;38507;53.132;6.394;2023-08-12T14:12:28;6.18;;;1.70;;
52208;SDS011;38507;53.132;6.394;2023-08-12T14:14:53;7.63;;;1.88;;
52208;SDS011;38507;53.132;6.394;2023-08-12T14:17:19;6.72;;;1.50;;
52208;SDS011;38507;53.132;6.394;2023-08-12T14:19:48;8.38;;;2.20;;
52208;SDS011;38507;53.132;6.394;2023-08-12T14:22:16;6.82;;;1.30;;
52208;SDS011;38507;53.132;6.394;2023-08-12T14:24:41;8.32;;;1.70;;
52208;SDS011;38507;53.132;6.394;2023-08-12T14:27:09;12.68;;;2.40;;
52208;SDS011;38507;53.132;6.394;2023-08-12T14:29:35;11.32;;;1.98;;
52208;SDS011;38507;53.132;6.394;2023-08-12T14:32:00;12.35;;;1.88;;
52208;SDS011;38507;53.132;6.394;2023-08-12T14:34:26;10.05;;;1.67;;